CYCS

Chesterfield Inlet Airport

Chesterfield Inlet, Canada
METAR CYCS 221721Z 26010KT 15SM FEW015 OVC037 M04/M07 A3022 RMK SC2SC6 SLP235
Observed Flight Rules
May-22 @ 17:21 UTC (35 minutes ago) Visual Flight Rules
Wind Visibility Clouds
260° at 10 knots 15 miles
  • Few at 1,500' AGL
  • Overcast at 3,700' AGL
Temperatures Readings
Current -4°C / 25°F
Dewpoint -7°C / 19°F
Humidity 80%
Altimeter 30.22" Hg
Pressure 1023.5 hPa
Elevation 11
METAR CYCS 221721Z 26010KT 15SM FEW015 OVC037 M04/M07 A3022 RMK SC2SC6 SLP235
Observed Flight Rules
May-22 @ 17:21 UTC
(35 minutes ago)
VFR
Wind Visibility
260° at 10 knots 15 miles
Clouds
  • Few at 1,500' AGL
  • Overcast at 3,700' AGL
Temperature Dewpoint
-4°C / 25°F -7°C / 19°F
Humidity Altimeter Pressure
80% 30.22" Hg 1023.5 hPa